Terminal Aerodrome Forecast
Issued by NWS

Home | Current Version | Previous Version | Text Only | Print | Product List | Glossary On
Versions: 1 2 3 4 5 6 7 8 9 10 11 12
000
FTUS46 KPDT 281740
TAFBDN
TAF
KBDN 281740Z 2818/2918 33006KT P6SM BKN035 BKN040
     FM282100 34010KT P6SM SCT050
     FM290200 09006KT P6SM BKN045
     FM290500 27005KT P6SM BKN045
     FM291200 VRB04KT P6SM OVC040=

USA.gov is the U.S. government's official web portal to all federal, state and local government web resources and services.